createdAt,value
2023-04-06T00:17:11.369Z,9.00
2023-04-06T00:22:14.713Z,9.85
2023-04-06T00:27:17.285Z,9.67
2023-04-06T00:32:21.297Z,9.90
2023-04-06T00:37:24.002Z,9.85
2023-04-06T00:42:26.804Z,11.17
2023-04-06T00:47:31.110Z,9.82
2023-04-06T00:52:34.682Z,7.77
2023-04-06T00:57:37.770Z,9.73
2023-04-06T01:02:42.341Z,8.15
2023-04-06T01:07:46.887Z,9.03
2023-04-06T01:12:54.013Z,7.90
2023-04-06T01:18:16.997Z,8.57
2023-04-06T01:23:30.544Z,8.80
2023-04-06T01:28:33.233Z,9.98
2023-04-06T01:33:50.561Z,10.60
2023-04-06T01:38:57.745Z,9.75
2023-04-06T01:44:07.757Z,11.67
2023-04-06T01:49:10.525Z,9.50
2023-04-06T01:54:17.656Z,9.25
2023-04-06T01:59:38.772Z,10.83
2023-04-06T02:04:48.009Z,9.30
2023-04-06T02:09:55.404Z,9.80
2023-04-06T02:15:02.718Z,10.00
2023-04-06T02:20:06.736Z,9.73
2023-04-06T02:25:11.300Z,9.37
2023-04-06T02:30:15.098Z,9.18
2023-04-06T02:35:17.608Z,9.37
2023-04-06T02:40:24.943Z,8.40
2023-04-06T02:45:27.620Z,8.48
2023-04-06T02:50:31.409Z,15.13
2023-04-06T02:55:39.915Z,10.80
2023-04-06T03:00:42.697Z,10.73
2023-04-06T03:05:48.134Z,8.93
2023-04-06T03:10:55.017Z,8.60
2023-04-06T03:16:00.123Z,10.67
2023-04-06T03:21:03.780Z,9.65
2023-04-06T03:26:21.561Z,12.90
2023-04-06T03:31:27.665Z,14.80
2023-04-06T03:36:42.535Z,13.30
2023-04-06T03:41:46.501Z,13.33
2023-04-06T03:47:12.229Z,12.27
2023-04-06T03:52:14.809Z,11.43
2023-04-06T03:57:19.175Z,8.98
2023-04-06T04:02:22.076Z,9.13
2023-04-06T04:07:26.496Z,10.67
2023-04-06T04:12:30.665Z,9.82
2023-04-06T04:17:34.759Z,12.70
2023-04-06T04:22:37.446Z,11.65
2023-04-06T04:27:44.814Z,11.52
2023-04-06T04:32:48.121Z,10.80
2023-04-06T04:37:55.285Z,12.48
2023-04-06T04:43:00.527Z,15.27
2023-04-06T04:48:07.756Z,19.25
2023-04-06T04:53:24.656Z,16.25
2023-04-06T04:58:34.235Z,13.07
2023-04-06T05:03:38.785Z,13.32
2023-04-06T05:08:43.858Z,12.83
2023-04-06T05:13:48.877Z,13.10
2023-04-06T05:18:56.480Z,12.70
2023-04-06T05:24:01.722Z,13.07
2023-04-06T05:29:07.768Z,12.13
2023-04-06T05:34:13.347Z,12.60
2023-04-06T05:39:16.118Z,11.85
2023-04-06T05:44:24.077Z,10.75
2023-04-06T05:49:37.227Z,17.00
2023-04-06T05:54:43.793Z,24.17
2023-04-06T05:59:47.818Z,21.80
2023-04-06T06:04:52.350Z,17.40
2023-04-06T06:09:58.335Z,31.40
2023-04-06T06:15:09.405Z,17.93
2023-04-06T06:20:17.353Z,14.38
2023-04-06T06:25:20.745Z,11.90
2023-04-06T06:30:26.320Z,15.27
2023-04-06T06:35:29.565Z,23.85
2023-04-06T06:40:32.508Z,9.53
2023-04-06T06:45:36.734Z,14.95
2023-04-06T06:50:40.093Z,17.63
2023-04-06T06:55:43.349Z,12.60
2023-04-06T07:00:47.590Z,12.32
2023-04-06T07:05:51.738Z,9.90
2023-04-06T07:10:55.104Z,9.50
2023-04-06T07:15:59.655Z,14.83
2023-04-06T07:21:04.866Z,10.77
2023-04-06T07:26:07.887Z,8.73
2023-04-06T07:31:12.271Z,11.10
2023-04-06T07:36:15.217Z,10.23
2023-04-06T07:41:17.876Z,6.77
2023-04-06T07:46:22.738Z,5.05
2023-04-06T07:51:27.051Z,5.63
2023-04-06T07:56:29.780Z,5.80
2023-04-06T08:01:34.035Z,3.72
2023-04-06T08:06:36.872Z,3.93
2023-04-06T08:11:39.700Z,3.80
2023-04-06T08:16:44.423Z,6.32
2023-04-06T08:21:50.532Z,4.17
2023-04-06T08:26:54.110Z,4.40
2023-04-06T08:31:58.171Z,3.70
2023-04-06T08:37:02.880Z,4.38
2023-04-06T08:42:11.319Z,5.90
2023-04-06T08:47:15.624Z,8.33
2023-04-06T08:52:20.297Z,5.68
2023-04-06T08:57:23.388Z,6.57
2023-04-06T09:02:34.661Z,6.13
2023-04-06T09:07:37.490Z,3.88
2023-04-06T09:12:43.002Z,8.77
2023-04-06T09:17:47.189Z,8.13
2023-04-06T09:22:50.144Z,4.97
2023-04-06T09:28:01.318Z,4.88
2023-04-06T09:33:05.988Z,4.55
2023-04-06T09:38:12.822Z,4.37
2023-04-06T09:43:25.751Z,4.45
2023-04-06T09:48:35.133Z,3.53
2023-04-06T09:53:43.023Z,4.10
2023-04-06T09:58:51.113Z,4.20
2023-04-06T10:04:11.701Z,4.23
2023-04-06T10:09:15.165Z,3.63
2023-04-06T10:14:18.274Z,3.37
2023-04-06T10:19:30.046Z,3.58
2023-04-06T10:24:32.957Z,4.57
2023-04-06T10:29:46.683Z,3.57
2023-04-06T10:34:50.954Z,9.57
2023-04-06T10:39:54.690Z,9.40
2023-04-06T10:44:57.518Z,5.45
2023-04-06T10:50:01.571Z,2.72
2023-04-06T10:55:05.948Z,3.63
2023-04-06T11:00:12.532Z,3.58
2023-04-06T11:05:17.282Z,6.67
2023-04-06T11:10:23.533Z,3.78
2023-04-06T11:15:26.766Z,4.72
2023-04-06T11:20:30.928Z,5.20
2023-04-06T11:25:34.015Z,5.05
2023-04-06T11:30:37.153Z,4.60
2023-04-06T11:35:41.998Z,4.13
2023-04-06T11:40:44.761Z,4.50
2023-04-06T11:45:47.498Z,6.53
2023-04-06T11:50:58.058Z,5.10
2023-04-06T11:56:00.836Z,5.27
2023-04-06T12:01:06.728Z,6.10
2023-04-06T12:06:10.729Z,4.40
2023-04-06T12:11:13.892Z,4.37
2023-04-06T12:16:16.621Z,3.78
2023-04-06T12:21:23.521Z,4.20
2023-04-06T12:26:26.923Z,6.55
2023-04-06T12:31:29.709Z,6.15
2023-04-06T12:36:34.310Z,5.47
2023-04-06T12:41:37.165Z,5.75
2023-04-06T12:46:39.906Z,9.50
2023-04-06T12:51:44.191Z,6.80
2023-04-06T12:56:46.884Z,8.55
2023-04-06T13:01:52.185Z,8.70
2023-04-06T13:06:56.444Z,8.00
2023-04-06T13:11:58.957Z,6.13
2023-04-06T13:17:01.644Z,4.72
2023-04-06T13:22:06.006Z,4.28
2023-04-06T13:27:08.571Z,4.63
2023-04-06T13:32:11.363Z,4.40
2023-04-06T13:37:16.517Z,5.90
2023-04-06T13:42:19.241Z,4.97
2023-04-06T13:47:25.018Z,4.22
2023-04-06T13:52:31.808Z,5.20
2023-04-06T13:57:34.410Z,5.25
2023-04-06T14:02:37.014Z,3.90
2023-04-06T14:07:41.114Z,4.00
2023-04-06T14:12:44.496Z,3.70
2023-04-06T14:17:47.142Z,4.30
2023-04-06T14:22:53.992Z,4.63
2023-04-06T14:27:57.504Z,3.70
2023-04-06T14:33:00.203Z,3.67
2023-04-06T14:38:07.292Z,4.95
2023-04-06T14:43:09.767Z,2.50
2023-04-06T14:48:12.376Z,3.13
2023-04-06T14:53:18.839Z,2.93
2023-04-06T14:58:26.156Z,4.65
2023-04-06T15:03:31.737Z,3.10
2023-04-06T15:08:35.683Z,3.43
2023-04-06T15:13:38.402Z,5.38
2023-04-06T15:18:41.361Z,5.30
2023-04-06T15:23:45.537Z,5.90
2023-04-06T15:28:48.242Z,6.85
2023-04-06T15:33:53.574Z,4.63
2023-04-06T15:38:58.422Z,4.45
2023-04-06T15:44:01.016Z,4.53
2023-04-06T15:49:03.935Z,3.70
2023-04-06T15:54:08.033Z,3.58
2023-04-06T15:59:10.732Z,3.60
2023-04-06T16:04:13.385Z,4.20
2023-04-06T16:09:17.505Z,3.10
2023-04-06T16:14:20.001Z,3.30
2023-04-06T16:19:22.766Z,3.70
2023-04-06T16:24:26.859Z,12.30
2023-04-06T16:29:29.387Z,7.85
2023-04-06T16:34:32.681Z,3.70
2023-04-06T16:39:39.624Z,4.25
2023-04-06T16:44:42.231Z,5.47
2023-04-06T16:49:44.984Z,3.90
2023-04-06T16:54:50.123Z,3.30
2023-04-06T16:59:53.381Z,4.07
2023-04-06T17:04:55.964Z,4.93
2023-04-06T17:10:00.644Z,6.03
2023-04-06T17:15:03.491Z,4.33
2023-04-06T17:20:08.212Z,4.20
2023-04-06T17:25:12.677Z,4.07
2023-04-06T17:30:17.140Z,3.78
2023-04-06T17:35:22.424Z,2.75
2023-04-06T17:40:26.763Z,3.50
2023-04-06T17:45:29.252Z,3.40
2023-04-06T17:50:31.793Z,3.43
2023-04-06T17:55:38.901Z,4.57
2023-04-06T18:00:41.495Z,3.33
2023-04-06T18:05:44.210Z,4.57
2023-04-06T18:10:48.451Z,3.90
2023-04-06T18:15:51.005Z,4.20
2023-04-06T18:20:53.547Z,3.60
2023-04-06T18:25:57.531Z,4.85
2023-04-06T18:31:00.376Z,3.80
2023-04-06T18:36:04.144Z,4.13
2023-04-06T18:41:08.238Z,4.53
2023-04-06T18:46:12.325Z,4.40
2023-04-06T18:51:15.045Z,3.22
2023-04-06T18:56:19.958Z,4.10
2023-04-06T19:01:24.606Z,4.05
2023-04-06T19:06:27.676Z,3.87
2023-04-06T19:11:33.119Z,4.05
2023-04-06T19:16:36.514Z,4.53
2023-04-06T19:21:39.129Z,3.93
2023-04-06T19:26:43.088Z,3.80
2023-04-06T19:31:45.788Z,4.27
2023-04-06T19:36:48.800Z,4.40
2023-04-06T19:41:56.836Z,4.03
2023-04-06T19:47:00.261Z,4.00
2023-04-06T19:52:02.807Z,3.63
2023-04-06T19:57:06.722Z,3.33
2023-04-06T20:02:09.462Z,3.90
2023-04-06T20:07:12.021Z,3.85
2023-04-06T20:12:15.825Z,3.70
2023-04-06T20:17:18.279Z,4.88
2023-04-06T20:22:21.120Z,3.70
2023-04-06T20:27:25.017Z,3.92
2023-04-06T20:32:27.606Z,4.93
2023-04-06T20:37:30.273Z,5.20
2023-04-06T20:42:34.613Z,3.80
2023-04-06T20:47:37.119Z,5.33
2023-04-06T20:52:39.651Z,4.90
2023-04-06T20:57:45.066Z,4.88
2023-04-06T21:02:48.817Z,5.00
2023-04-06T21:07:51.492Z,4.50
2023-04-06T21:12:55.411Z,6.03
2023-04-06T21:17:57.951Z,5.63
2023-04-06T21:23:00.538Z,6.82
2023-04-06T21:28:07.547Z,6.13
2023-04-06T21:33:10.197Z,6.20
2023-04-06T21:38:12.894Z,5.50
2023-04-06T21:43:16.863Z,5.30
2023-04-06T21:48:19.427Z,7.20
2023-04-06T21:53:22.190Z,6.57
2023-04-06T21:58:26.386Z,6.40
2023-04-06T22:03:29.293Z,6.33
2023-04-06T22:08:33.997Z,7.97
2023-04-06T22:13:39.356Z,9.65
2023-04-06T22:18:42.065Z,7.13
2023-04-06T22:23:44.652Z,8.43
2023-04-06T22:28:48.971Z,8.97
2023-04-06T22:33:51.461Z,9.52
2023-04-06T22:38:56.419Z,9.52
2023-04-06T22:44:00.209Z,8.87
2023-04-06T22:49:02.625Z,9.70
2023-04-06T22:54:08.286Z,9.60
2023-04-06T22:59:12.541Z,10.23
2023-04-06T23:04:14.994Z,10.23
2023-04-06T23:09:17.478Z,10.23
2023-04-06T23:14:21.365Z,9.80
2023-04-06T23:19:23.893Z,9.67
2023-04-06T23:24:26.689Z,10.88
2023-04-06T23:29:33.616Z,8.70
2023-04-06T23:34:36.179Z,10.17
2023-04-06T23:39:38.887Z,8.70
2023-04-06T23:44:43.028Z,9.17
2023-04-06T23:49:45.639Z,8.95
2023-04-06T23:54:48.117Z,9.13
2023-04-06T23:59:52.215Z,8.87
